Airfield :
LOGIN :

Register | Disclaimer

   EN    FR    IT 

 










Legend :    VFR   Marginal VFR   IFR   Intensive IFR   Very Intensive IFR
Visi :
Ceiling :
>= 8 km
>= 3000ft
5 to 8 km
1000 to 3000 ft
1500m to 5 km
500 to 1000 ft
800 to 1500m
200 to 500 ft
< 800m
< 200 ft
Symbols :   Thunderstorms  Fog  Heavy snow  Heavy precipitations  Wind > 20 kt
SIGMETs :     Misc.  Thunderstorms  Icing  Turbulence  Mountain Waves  Volcanic Ashes






- Airport Elevation : 1910 ft
- IATA code : RDZ


LFCR - Rodez

CURRENT METAR :
  • 070700Z AUTO 02009KT 350V060 CAVOK 18/09 Q1026 NOSIG

EXPIRED METARs :
  • 070630Z AUTO 02010KT 350V050 CAVOK 18/09 Q1025 NOSIG
  • 070600Z AUTO 01006KT 340V040 CAVOK 17/08 Q1025 NOSIG
  • 070530Z AUTO 36004KT 320V050 CAVOK 16/08 Q1025 NOSIG
  • 070500Z AUTO 01005KT 330V040 CAVOK 15/08 Q1025 NOSIG
  • 070400Z AUTO 36008KT CAVOK 15/08 Q1025 NOSIG

TAF TAF LFCR
Valid from the 07 at 06:00 until the 08 at 06:00 UTC


070500Z 0706/0806 VRB03KT CAVOK
BECMG 0706/0708 31010KT
TEMPO 0712/0718 32015G25KT
TEMPO 0800/0806 VRB03KT



MET'MAP, your aeronautical weather chart ! - Copyright ORBIFLY December 2007 - Disclaimer

ORBIFLY MET'MAP TEAM :

Programming & Development : Alexandra Zaïnal
Original concept : Baudouin d'Aumeries
Technical & hardware support : Manuel Goepfert
Assistance : Marc-Olivier Méhu




SOURCES & CREDITS :

   NOAA